Time;durP1;ratioP1;P1;durP2;ratioP2;P2;SDS_P1;SDS_P2;PMS_P1;PMS_P2;Temp;Humidity;BMP_temperature;BMP_pressure;BME280_temperature;BME280_humidity;BME280_pressure;Samples;Min_cycle;Max_cycle;Signal;HPM_P1;HPM_P2
2023/07/26 00:00:35;;;;;;;;;;;;;;;26.75;37.50;98870.63;6156797;23;19967;-67
2023/07/26 00:03:00;;;;;;;;;;;;;;;26.68;37.56;98867.63;6130539;23;20216;-67
2023/07/26 00:05:25;;;;;;;;;;;;;;;26.69;37.41;98879.44;6156771;23;19908;-67
2023/07/26 00:07:51;;;;;;;;;;;;;;;26.67;37.06;98879.81;6130880;23;19916;-66
2023/07/26 00:10:16;;;;;;;;;;;;;;;26.60;37.30;98883.09;6156744;23;19979;-66
2023/07/26 00:12:45;;;;;;;;;;;;;;;26.56;37.82;98873.88;6156964;23;20357;-67
2023/07/26 00:15:11;;;;;;;;;;;;;;;26.59;37.60;98878.69;6157297;23;19908;-66
2023/07/26 00:17:36;;;;;;;;;;;;;;;26.57;37.49;98883.72;6156855;23;19952;-66
2023/07/26 00:20:01;;;;;;;;;;;;;;;26.57;37.88;98888.44;6156628;23;20202;-66
2023/07/26 00:22:28;;;;;;;;;;;;;;;26.56;37.59;98878.56;6157202;23;19912;-66
2023/07/26 00:24:54;;;;;;;;;;;;;;;26.57;37.89;98880.19;6156801;23;20230;-66
2023/07/26 00:27:19;;;;;;;;;;;;;;;26.56;37.88;98884.06;6156991;23;19909;-66
2023/07/26 00:29:44;;;;;;;;;;;;;;;26.57;37.73;98878.22;6130732;23;19999;-66
2023/07/26 00:32:10;;;;;;;;;;;;;;;26.59;37.48;98886.16;6157018;23;19909;-65
2023/07/26 00:34:35;;;;;;;;;;;;;;;26.55;37.84;98890.75;6156695;23;20269;-65
2023/07/26 00:37:03;;;;;;;;;;;;;;;26.54;37.54;98887.19;6156763;23;19909;-66
2023/07/26 00:39:29;;;;;;;;;;;;;;;26.57;37.55;98877.44;6156709;23;19920;-65
2023/07/26 00:41:54;;;;;;;;;;;;;;;26.58;37.66;98879.84;6156564;23;19909;-65
2023/07/26 00:44:20;;;;;;;;;;;;;;;26.55;37.44;98877.75;6156587;23;19936;-65
2023/07/26 00:46:45;;;;;;;;;;;;;;;26.55;37.56;98887.97;6155933;23;19908;-65
2023/07/26 00:49:10;;;;;;;;;;;;;;;26.52;37.58;98888.66;6156188;23;20218;-65
2023/07/26 00:51:38;;;;;;;;;;;;;;;26.48;37.81;98891.28;6156335;23;19919;-65
2023/07/26 00:54:05;;;;;;;;;;;;;;;26.46;37.63;98893.56;6155339;23;19909;-65
2023/07/26 00:56:30;;;;;;;;;;;;;;;26.44;37.63;98896.66;6156617;23;19987;-65
2023/07/26 00:58:55;;;;;;;;;;;;;;;26.46;37.79;98894.38;6156159;23;20019;-65
2023/07/26 01:01:21;;;;;;;;;;;;;;;26.46;37.62;98902.63;6156397;23;19955;-65
2023/07/26 01:03:46;;;;;;;;;;;;;;;26.45;37.92;98908.50;6129993;23;20321;-65
2023/07/26 01:06:14;;;;;;;;;;;;;;;26.43;38.13;98900.56;6156318;23;19909;-65
2023/07/26 01:08:58;;;;;;;;;;;;;;;26.41;38.04;98908.34;6156227;23;20227;-65
2023/07/26 01:11:26;;;;;;;;;;;;;;;26.42;37.85;98911.91;6156280;23;19909;-65
2023/07/26 01:14:00;;;;;;;;;;;;;;;26.41;37.87;98908.34;6156143;23;19980;-65
2023/07/26 01:16:25;;;;;;;;;;;;;;;26.43;37.77;98908.81;6156155;23;19958;-65
2023/07/26 01:18:51;;;;;;;;;;;;;;;26.38;38.01;98919.22;6156467;23;19947;-65
2023/07/26 01:21:16;;;;;;;;;;;;;;;26.36;37.64;98919.56;6156614;23;19908;-65
2023/07/26 01:23:41;;;;;;;;;;;;;;;26.39;37.74;98920.81;6156241;23;20341;-66
2023/07/26 01:26:06;;;;;;;;;;;;;;;26.37;37.85;98915.66;6156057;23;19909;-65
2023/07/26 01:28:32;;;;;;;;;;;;;;;26.34;37.81;98913.59;6156402;23;20299;-66
2023/07/26 01:31:01;;;;;;;;;;;;;;;26.29;37.78;98913.78;6156344;23;19908;-66
2023/07/26 01:33:29;;;;;;;;;;;;;;;26.27;37.56;98925.13;6130282;23;20192;-66
2023/07/26 01:35:55;;;;;;;;;;;;;;;26.22;37.68;98919.03;6156459;23;20210;-66
2023/07/26 01:38:21;;;;;;;;;;;;;;;26.18;37.93;98916.16;6129845;23;19913;-66
2023/07/26 01:40:47;;;;;;;;;;;;;;;26.14;37.62;98922.66;6156063;23;20274;-67
2023/07/26 01:43:12;;;;;;;;;;;;;;;26.14;37.97;98923.47;6155787;23;19909;-67
2023/07/26 01:45:38;;;;;;;;;;;;;;;26.15;37.58;98924.25;6155867;23;20271;-67
2023/07/26 01:48:03;;;;;;;;;;;;;;;26.15;37.61;98922.34;6154964;23;19931;-67
2023/07/26 01:50:28;;;;;;;;;;;;;;;26.15;37.64;98918.75;6129602;23;19923;-67
2023/07/26 01:52:54;;;;;;;;;;;;;;;26.12;38.03;98924.94;6155992;23;19987;-67
2023/07/26 01:55:19;;;;;;;;;;;;;;;26.16;38.19;98920.38;6155963;23;20010;-67
2023/07/26 01:57:44;;;;;;;;;;;;;;;26.16;37.89;98920.38;6155902;23;20381;-67
2023/07/26 02:00:10;;;;;;;;;;;;;;;26.16;37.88;98923.13;6156333;23;19908;-67
2023/07/26 02:02:35;;;;;;;;;;;;;;;26.14;37.83;98922.66;6155566;23;19963;-67
2023/07/26 02:05:01;;;;;;;;;;;;;;;26.11;38.19;98920.56;6155990;23;19908;-67
2023/07/26 02:07:26;;;;;;;;;;;;;;;26.07;38.08;98920.44;6155890;23;19909;-67
2023/07/26 02:09:51;;;;;;;;;;;;;;;26.06;38.20;98916.91;6155946;23;19985;-67
2023/07/26 02:12:17;;;;;;;;;;;;;;;26.05;37.74;98919.97;6155632;23;19970;-67
2023/07/26 02:14:42;;;;;;;;;;;;;;;26.04;38.07;98921.94;6155801;23;19909;-67
2023/07/26 02:17:07;;;;;;;;;;;;;;;26.07;37.83;98926.75;6155896;23;19908;-67
2023/07/26 02:19:32;;;;;;;;;;;;;;;26.11;37.85;98921.38;6155887;23;19912;-67
2023/07/26 02:21:58;;;;;;;;;;;;;;;26.08;38.06;98919.31;6155467;23;20337;-67
2023/07/26 02:24:23;;;;;;;;;;;;;;;26.08;37.78;98928.38;6155482;23;19908;-67
2023/07/26 02:26:48;;;;;;;;;;;;;;;26.04;38.41;98924.69;6155589;23;20326;-67
2023/07/26 02:29:14;;;;;;;;;;;;;;;26.12;38.15;98924.94;6155361;23;19908;-65
2023/07/26 02:31:39;;;;;;;;;;;;;;;26.12;37.98;98936.75;6155799;23;19915;-65
2023/07/26 02:34:05;;;;;;;;;;;;;;;26.14;37.88;98931.72;6155547;23;19936;-65
2023/07/26 02:36:30;;;;;;;;;;;;;;;26.20;37.56;98935.06;6155626;23;19909;-65
2023/07/26 02:38:55;;;;;;;;;;;;;;;26.20;37.83;98938.63;6129232;23;19913;-65
2023/07/26 02:41:20;;;;;;;;;;;;;;;26.14;37.45;98936.44;6155862;23;19962;-65
2023/07/26 02:43:46;;;;;;;;;;;;;;;26.06;37.73;98944.41;6155493;23;20322;-65
2023/07/26 02:46:11;;;;;;;;;;;;;;;26.08;37.45;98947.63;6155506;23;19908;-65
2023/07/26 02:48:36;;;;;;;;;;;;;;;26.04;37.75;98949.44;6128297;23;19912;-65
2023/07/26 02:51:02;;;;;;;;;;;;;;;26.02;37.69;98946.22;6155351;23;19908;-65
2023/07/26 02:53:27;;;;;;;;;;;;;;;26.03;37.80;98945.06;6155062;23;20222;-65
2023/07/26 02:55:52;;;;;;;;;;;;;;;26.04;37.86;98946.69;6155155;23;19940;-65
2023/07/26 02:58:17;;;;;;;;;;;;;;;26.04;37.76;98949.44;6155041;23;20318;-65
2023/07/26 03:00:43;;;;;;;;;;;;;;;26.08;38.12;98955.09;6155322;23;19909;-65
2023/07/26 03:03:08;;;;;;;;;;;;;;;26.02;37.80;98951.72;6128777;23;19920;-65
2023/07/26 03:05:36;;;;;;;;;;;;;;;26.04;37.88;98952.19;6129390;23;19909;-65
2023/07/26 03:08:01;;;;;;;;;;;;;;;26.01;37.41;98960.31;6154889;23;19909;-65
2023/07/26 03:10:26;;;;;;;;;;;;;;;25.98;37.73;98956.25;6154850;23;19959;-65
2023/07/26 03:12:52;;;;;;;;;;;;;;;25.95;37.73;98961.66;6155184;23;19915;-65
2023/07/26 03:15:17;;;;;;;;;;;;;;;25.96;37.57;98964.03;6155385;23;20266;-65
2023/07/26 03:17:42;;;;;;;;;;;;;;;25.92;37.53;98962.28;6155087;23;20373;-65
2023/07/26 03:20:08;;;;;;;;;;;;;;;25.88;37.68;98962.13;6155717;23;19944;-65
2023/07/26 03:22:33;;;;;;;;;;;;;;;25.89;37.69;98963.72;6155362;23;19915;-65
2023/07/26 03:24:58;;;;;;;;;;;;;;;25.89;37.58;98960.97;6155321;23;19923;-65
2023/07/26 03:27:23;;;;;;;;;;;;;;;25.88;37.72;98965.69;6155118;23;19908;-65
2023/07/26 03:29:53;;;;;;;;;;;;;;;25.83;37.81;98962.31;6155272;23;19916;-65
2023/07/26 03:32:18;;;;;;;;;;;;;;;25.79;37.72;98970.44;6155163;23;19912;-65
2023/07/26 03:34:43;;;;;;;;;;;;;;;25.73;37.61;98959.97;6155143;23;19915;-65
2023/07/26 03:37:10;;;;;;;;;;;;;;;25.70;38.22;98964.16;6155378;23;19913;-65
2023/07/26 03:39:35;;;;;;;;;;;;;;;25.71;37.91;98962.25;6155022;23;20335;-65
2023/07/26 03:42:00;;;;;;;;;;;;;;;25.76;37.91;98962.84;6155026;23;19908;-65
2023/07/26 03:44:26;;;;;;;;;;;;;;;25.71;38.25;98970.50;6155287;23;20308;-67
2023/07/26 03:46:51;;;;;;;;;;;;;;;25.68;38.57;98971.94;6154313;23;20378;-66
2023/07/26 03:49:16;;;;;;;;;;;;;;;25.66;38.22;98975.00;6155315;23;19912;-66
2023/07/26 03:51:42;;;;;;;;;;;;;;;25.63;38.19;98977.63;6155228;23;20327;-66
2023/07/26 03:54:07;;;;;;;;;;;;;;;25.67;38.30;98979.38;6155272;23;19908;-66
2023/07/26 03:56:33;;;;;;;;;;;;;;;25.67;37.85;98978.59;6155131;23;19963;-66
2023/07/26 03:58:59;;;;;;;;;;;;;;;25.65;37.73;98986.38;6155362;23;19920;-66
2023/07/26 04:01:25;;;;;;;;;;;;;;;25.59;37.97;98988.47;6155198;23;19971;-65
2023/07/26 04:03:51;;;;;;;;;;;;;;;25.60;37.38;98990.09;6155131;23;19912;-66
2023/07/26 04:06:16;;;;;;;;;;;;;;;25.68;37.14;98986.50;6154969;23;20353;-66
2023/07/26 04:08:41;;;;;;;;;;;;;;;25.65;37.18;98986.38;6155447;23;19955;-67
2023/07/26 04:11:06;;;;;;;;;;;;;;;25.53;37.15;98984.31;6155425;23;19931;-65
2023/07/26 04:13:32;;;;;;;;;;;;;;;25.49;37.06;98995.16;6154916;23;19956;-66
2023/07/26 04:15:58;;;;;;;;;;;;;;;25.40;37.26;98997.13;6154934;23;19959;-66
2023/07/26 04:18:23;;;;;;;;;;;;;;;25.41;37.17;98995.19;6128946;23;20052;-66
2023/07/26 04:20:48;;;;;;;;;;;;;;;25.30;36.97;98987.28;6154864;23;19920;-66
2023/07/26 04:23:14;;;;;;;;;;;;;;;25.22;37.38;98990.88;6154962;23;19909;-65
2023/07/26 04:25:39;;;;;;;;;;;;;;;25.12;37.37;98994.75;6155310;23;20030;-66
2023/07/26 04:28:05;;;;;;;;;;;;;;;25.09;37.11;98994.59;6155487;23;20238;-66
2023/07/26 04:30:31;;;;;;;;;;;;;;;25.23;36.98;98994.41;6157188;23;19909;-66
2023/07/26 04:32:56;;;;;;;;;;;;;;;25.22;37.28;98999.09;6157034;23;19948;-66
2023/07/26 04:35:22;;;;;;;;;;;;;;;25.30;37.10;99000.25;6156756;23;19909;-66
2023/07/26 04:37:47;;;;;;;;;;;;;;;25.37;36.49;99002.47;6156795;23;19916;-66
2023/07/26 04:40:12;;;;;;;;;;;;;;;25.42;36.29;99010.53;6156754;23;20261;-65
2023/07/26 04:42:37;;;;;;;;;;;;;;;25.29;35.65;99004.91;6156948;23;19908;-66
2023/07/26 04:45:03;;;;;;;;;;;;;;;25.22;35.66;99010.09;6156525;23;19915;-66
2023/07/26 04:47:28;;;;;;;;;;;;;;;25.23;36.05;99014.47;6156073;23;20115;-66
2023/07/26 04:49:53;;;;;;;;;;;;;;;25.04;35.63;99011.25;6156454;23;19908;-66
2023/07/26 04:52:19;;;;;;;;;;;;;;;24.95;36.27;99018.72;6130578;23;19966;-66
2023/07/26 04:54:44;;;;;;;;;;;;;;;24.99;36.07;99022.41;6156539;23;19908;-66
2023/07/26 04:57:09;;;;;;;;;;;;;;;24.85;35.44;99023.41;6156954;23;19908;-66
2023/07/26 04:59:35;;;;;;;;;;;;;;;24.80;35.37;99022.75;6156448;23;20319;-66
2023/07/26 05:02:00;;;;;;;;;;;;;;;24.67;35.80;99021.78;6156244;23;19952;-66
2023/07/26 05:04:25;;;;;;;;;;;;;;;24.54;35.25;99032.59;6156292;23;20288;-66
2023/07/26 05:06:50;;;;;;;;;;;;;;;24.45;35.62;99037.25;6156161;23;19959;-66
2023/07/26 05:09:16;;;;;;;;;;;;;;;24.45;36.10;99039.97;6156161;23;19908;-66
2023/07/26 05:11:41;;;;;;;;;;;;;;;24.35;35.70;99045.78;6156215;23;19909;-66
2023/07/26 05:14:07;;;;;;;;;;;;;;;24.33;36.16;99046.13;6156200;23;19955;-66
2023/07/26 05:16:32;;;;;;;;;;;;;;;24.26;35.89;99050.47;6156259;23;19943;-66
2023/07/26 05:18:58;;;;;;;;;;;;;;;24.14;35.72;99045.56;6156220;23;19913;-66
2023/07/26 05:21:24;;;;;;;;;;;;;;;24.06;35.77;99046.38;6156138;23;19967;-66
2023/07/26 05:23:50;;;;;;;;;;;;;;;24.02;35.15;99051.69;6156262;23;19912;-66
2023/07/26 05:26:15;;;;;;;;;;;;;;;24.01;35.65;99047.31;6156162;23;19919;-66
2023/07/26 05:28:40;;;;;;;;;;;;;;;24.05;36.08;99044.75;6156205;23;20203;-66
2023/07/26 05:31:05;;;;;;;;;;;;;;;24.10;36.04;99039.91;6156238;23;19916;-66
2023/07/26 05:33:31;;;;;;;;;;;;;;;24.07;36.00;99046.06;6156512;23;19908;-66
2023/07/26 05:35:56;;;;;;;;;;;;;;;23.98;35.95;99044.41;6155906;23;19908;-66
2023/07/26 05:38:22;;;;;;;;;;;;;;;23.94;35.50;99046.97;6156113;23;19944;-66
2023/07/26 05:40:47;;;;;;;;;;;;;;;23.84;35.85;99050.00;6155462;23;19950;-66
2023/07/26 05:43:12;;;;;;;;;;;;;;;23.84;36.10;99055.50;6155739;23;19997;-66
2023/07/26 05:45:40;;;;;;;;;;;;;;;23.89;36.48;99060.84;6155772;23;19987;-66
2023/07/26 05:48:05;;;;;;;;;;;;;;;23.68;35.87;99057.78;6154694;23;20362;-66
2023/07/26 05:50:30;;;;;;;;;;;;;;;23.74;35.98;99065.56;6155488;23;19909;-66
2023/07/26 05:52:56;;;;;;;;;;;;;;;23.79;36.13;99061.91;6155664;23;19979;-66
2023/07/26 05:55:21;;;;;;;;;;;;;;;23.79;36.18;99064.66;6155344;23;19915;-66
2023/07/26 05:57:46;;;;;;;;;;;;;;;23.90;36.49;99060.53;6155574;23;19932;-66
2023/07/26 06:00:13;;;;;;;;;;;;;;;23.95;36.73;99071.31;6155339;23;20495;-66
2023/07/26 06:02:39;;;;;;;;;;;;;;;23.89;35.90;99071.81;6155130;23;19999;-66
2023/07/26 06:05:05;;;;;;;;;;;;;;;23.85;35.45;99074.38;6155478;23;19940;-66
2023/07/26 06:07:30;;;;;;;;;;;;;;;23.87;35.83;99076.78;6155243;23;19978;-66
2023/07/26 06:09:56;;;;;;;;;;;;;;;23.96;35.78;99075.69;6155664;23;19909;-66
2023/07/26 06:12:21;;;;;;;;;;;;;;;23.87;35.91;99080.34;6155608;23;20014;-66
2023/07/26 06:14:46;;;;;;;;;;;;;;;23.94;36.12;99074.38;6105051;23;19943;-66
2023/07/26 06:17:12;;;;;;;;;;;;;;;23.93;35.15;99079.06;6155749;23;20225;-66
2023/07/26 06:19:37;;;;;;;;;;;;;;;23.90;35.88;99078.88;6156023;23;19963;-66
2023/07/26 06:22:03;;;;;;;;;;;;;;;23.98;35.57;99080.03;6155534;23;19909;-67
2023/07/26 06:24:28;;;;;;;;;;;;;;;23.95;35.86;99071.31;6155685;23;19916;-67
2023/07/26 06:26:53;;;;;;;;;;;;;;;23.95;35.61;99078.75;6155521;23;19916;-67
2023/07/26 06:29:19;;;;;;;;;;;;;;;23.96;35.63;99075.69;6155560;23;19913;-67
2023/07/26 06:31:44;;;;;;;;;;;;;;;23.91;35.31;99077.78;6155993;23;19923;-67
2023/07/26 06:34:14;;;;;;;;;;;;;;;23.95;36.00;99086.97;6156195;23;19908;-67
2023/07/26 06:36:39;;;;;;;;;;;;;;;23.98;35.59;99091.84;6155885;23;20336;-67
2023/07/26 06:39:05;;;;;;;;;;;;;;;23.96;35.25;99094.91;6129141;23;19920;-67
2023/07/26 06:41:30;;;;;;;;;;;;;;;24.02;35.81;99101.03;6155535;23;19908;-67
2023/07/26 06:43:56;;;;;;;;;;;;;;;23.94;35.81;99101.81;6155193;23;20013;-67
2023/07/26 06:46:21;;;;;;;;;;;;;;;23.82;35.27;99110.63;6128255;23;19916;-67
2023/07/26 06:48:46;;;;;;;;;;;;;;;23.72;34.47;99100.72;6155300;23;19915;-67
2023/07/26 06:51:12;;;;;;;;;;;;;;;23.64;35.40;99111.63;6154977;23;19971;-67
2023/07/26 06:53:37;;;;;;;;;;;;;;;23.67;34.94;99109.06;6155763;23;19916;-67
2023/07/26 06:56:02;;;;;;;;;;;;;;;23.66;35.11;99115.69;6155267;23;20343;-66
2023/07/26 06:58:28;;;;;;;;;;;;;;;23.67;35.40;99122.78;6155335;23;20018;-66
2023/07/26 07:00:54;;;;;;;;;;;;;;;23.69;34.92;99119.72;6155802;23;19908;-66
2023/07/26 07:03:20;;;;;;;;;;;;;;;23.69;35.43;99117.78;6155351;23;19952;-67
2023/07/26 07:05:45;;;;;;;;;;;;;;;23.83;35.93;99131.44;6155061;23;19987;-68
2023/07/26 07:08:10;;;;;;;;;;;;;;;23.85;35.20;99126.47;6155195;23;19909;-66
2023/07/26 07:10:36;;;;;;;;;;;;;;;23.87;35.14;99128.91;6153824;23;19939;-66
2023/07/26 07:13:01;;;;;;;;;;;;;;;23.93;34.89;99130.38;6153692;23;19955;-67
2023/07/26 07:15:26;;;;;;;;;;;;;;;23.93;34.73;99139.41;6153879;23;19908;-67
2023/07/26 07:17:51;;;;;;;;;;;;;;;23.87;35.16;99134.38;6153795;23;19936;-65
2023/07/26 07:20:17;;;;;;;;;;;;;;;23.87;35.18;99140.66;6153657;23;19915;-66
2023/07/26 07:22:42;;;;;;;;;;;;;;;23.95;35.22;99137.16;6153964;23;19940;-66
2023/07/26 07:25:07;;;;;;;;;;;;;;;23.81;34.12;99128.22;6154900;23;19923;-66
2023/07/26 07:27:33;;;;;;;;;;;;;;;23.81;34.82;99133.72;6155127;23;19908;-66
2023/07/26 07:29:59;;;;;;;;;;;;;;;23.77;34.73;99133.50;6155125;23;20287;-66
2023/07/26 07:32:25;;;;;;;;;;;;;;;23.93;34.21;99133.09;6155068;23;19909;-66
2023/07/26 07:34:50;;;;;;;;;;;;;;;24.01;34.69;99137.00;6154606;23;20214;-66
2023/07/26 07:37:15;;;;;;;;;;;;;;;23.99;34.72;99136.53;6155203;23;19916;-67
2023/07/26 07:39:41;;;;;;;;;;;;;;;23.97;34.99;99139.56;6154920;23;19919;-67
2023/07/26 07:42:06;;;;;;;;;;;;;;;24.11;35.20;99142.22;6155271;23;19909;-67
2023/07/26 07:44:31;;;;;;;;;;;;;;;23.96;34.36;99143.47;6155226;23;20286;-67
2023/07/26 07:46:57;;;;;;;;;;;;;;;24.06;34.54;99148.66;6154198;23;20310;-67
2023/07/26 07:49:22;;;;;;;;;;;;;;;24.05;33.82;99141.56;6155045;23;19909;-67
2023/07/26 07:51:48;;;;;;;;;;;;;;;23.82;34.03;99146.28;6155065;23;19963;-67
2023/07/26 07:54:13;;;;;;;;;;;;;;;24.02;34.29;99160.59;6154958;23;20721;-67
2023/07/26 07:56:39;;;;;;;;;;;;;;;24.18;34.70;99155.47;6155207;23;19913;-67
2023/07/26 07:59:04;;;;;;;;;;;;;;;24.09;33.38;99159.00;6154822;23;20003;-66
2023/07/26 08:01:30;;;;;;;;;;;;;;;23.95;33.08;99166.50;6154882;23;19959;-66
2023/07/26 08:03:55;;;;;;;;;;;;;;;23.94;33.87;99162.97;6156665;23;19909;-66
2023/07/26 08:06:21;;;;;;;;;;;;;;;23.77;33.12;99163.66;6157227;23;19915;-66
2023/07/26 08:08:46;;;;;;;;;;;;;;;23.75;33.98;99159.59;6157116;23;19987;-67
2023/07/26 08:11:11;;;;;;;;;;;;;;;23.68;34.62;99168.28;6156713;23;19909;-66
2023/07/26 08:13:37;;;;;;;;;;;;;;;23.85;33.91;99173.06;6156623;23;19936;-66
2023/07/26 08:16:02;;;;;;;;;;;;;;;23.98;34.64;99170.53;6156708;23;19916;-66
2023/07/26 08:18:27;;;;;;;;;;;;;;;24.04;33.09;99180.28;6156854;23;19913;-66
2023/07/26 08:20:53;;;;;;;;;;;;;;;24.20;33.71;99180.66;6156672;23;19915;-66
2023/07/26 08:23:18;;;;;;;;;;;;;;;24.31;34.15;99185.56;6156526;23;20038;-66
2023/07/26 08:25:43;;;;;;;;;;;;;;;24.34;34.12;99181.38;6156620;23;19991;-66
2023/07/26 08:28:08;;;;;;;;;;;;;;;24.34;34.02;99178.63;6156495;23;19913;-66
2023/07/26 08:30:34;;;;;;;;;;;;;;;24.40;34.42;99180.09;6130218;23;19915;-66
2023/07/26 08:32:59;;;;;;;;;;;;;;;24.25;33.12;99181.31;6156821;23;19912;-66
2023/07/26 08:35:24;;;;;;;;;;;;;;;24.51;34.28;99175.94;6156754;23;20385;-66
2023/07/26 08:37:50;;;;;;;;;;;;;;;24.50;33.95;99179.81;6156107;23;20306;-66
2023/07/26 08:40:16;;;;;;;;;;;;;;;24.53;33.82;99181.13;6156540;23;19948;-66
2023/07/26 08:42:41;;;;;;;;;;;;;;;24.68;33.77;99177.13;6156771;23;20230;-66
2023/07/26 08:45:07;;;;;;;;;;;;;;;24.77;33.58;99188.16;6130519;23;19909;-66
2023/07/26 08:47:34;;;;;;;;;;;;;;;24.82;33.15;99177.81;6155575;23;20318;-66
2023/07/26 08:50:00;;;;;;;;;;;;;;;24.84;33.45;99178.31;6156090;23;20299;-66
2023/07/26 08:52:26;;;;;;;;;;;;;;;24.83;33.19;99187.69;6156245;23;19940;-66
2023/07/26 08:54:52;;;;;;;;;;;;;;;24.68;33.48;99180.72;6156134;23;19932;-66
2023/07/26 08:57:18;;;;;;;;;;;;;;;24.77;32.95;99185.41;6155975;23;19995;-66
2023/07/26 08:59:43;;;;;;;;;;;;;;;24.89;33.60;99186.41;6155827;23;19979;-66
2023/07/26 09:02:10;;;;;;;;;;;;;;;24.99;33.02;99179.78;6155815;23;19927;-66
2023/07/26 09:04:36;;;;;;;;;;;;;;;25.17;33.37;99177.88;6155889;23;19908;-66
2023/07/26 09:07:02;;;;;;;;;;;;;;;25.15;32.95;99182.03;6155870;23;19908;-67
2023/07/26 09:09:27;;;;;;;;;;;;;;;25.06;32.99;99177.38;6156137;23;19915;-67
2023/07/26 09:11:52;;;;;;;;;;;;;;;25.06;32.32;99174.63;6155778;23;19932;-67
2023/07/26 09:14:18;;;;;;;;;;;;;;;25.18;32.43;99186.91;6156329;23;19995;-67
2023/07/26 09:16:43;;;;;;;;;;;;;;;25.39;33.41;99174.19;6155937;23;19940;-67
2023/07/26 09:19:09;;;;;;;;;;;;;;;25.45;33.14;99178.38;6156147;23;19916;-66
2023/07/26 09:21:35;;;;;;;;;;;;;;;25.41;32.57;99190.34;6156251;23;19909;-66
2023/07/26 09:24:01;;;;;;;;;;;;;;;25.41;33.26;99190.34;6156244;23;19912;-67
2023/07/26 09:26:35;;;;;;;;;;;;;;;25.55;33.02;99184.66;6156254;23;20278;-67
2023/07/26 09:29:01;;;;;;;;;;;;;;;25.36;31.19;99193.25;6156295;23;20393;-67
2023/07/26 09:31:30;;;;;;;;;;;;;;;25.52;33.12;99183.38;6156499;23;19908;-66
2023/07/26 09:33:56;;;;;;;;;;;;;;;25.54;32.46;99197.63;6156701;23;19936;-66
2023/07/26 09:36:22;;;;;;;;;;;;;;;25.56;32.12;99187.09;6154784;23;19928;-66
2023/07/26 09:38:47;;;;;;;;;;;;;;;25.76;32.38;99187.53;6154287;23;19925;-66
2023/07/26 09:41:25;;;;;;;;;;;;;;;25.79;32.11;99190.44;6155975;23;20277;-66
2023/07/26 09:43:51;;;;;;;;;;;;;;;26.08;31.43;99198.00;6155048;23;19908;-66
2023/07/26 09:46:17;;;;;;;;;;;;;;;26.18;30.44;99202.34;6129866;23;19908;-66
2023/07/26 09:48:58;;;;;;;;;;;;;;;26.46;30.66;99201.91;6155384;23;19909;-66
2023/07/26 09:51:24;;;;;;;;;;;;;;;26.60;30.45;99198.97;6154488;23;19975;-66
2023/07/26 09:53:51;;;;;;;;;;;;;;;26.84;31.20;99198.34;6155761;23;19935;-66
2023/07/26 09:56:17;;;;;;;;;;;;;;;27.04;30.63;99199.50;6155636;23;20396;-66
2023/07/26 09:58:43;;;;;;;;;;;;;;;27.14;30.70;99193.59;6155842;23;20219;-66
2023/07/26 10:01:11;;;;;;;;;;;;;;;27.09;28.87;99201.25;6156067;23;19931;-66
2023/07/26 10:03:39;;;;;;;;;;;;;;;27.19;30.52;99198.09;6155804;23;19917;-66
2023/07/26 10:06:04;;;;;;;;;;;;;;;27.25;29.99;99196.75;6156521;23;19909;-66
2023/07/26 10:08:30;;;;;;;;;;;;;;;27.25;29.90;99196.75;6129983;23;19943;-66
2023/07/26 10:10:57;;;;;;;;;;;;;;;27.32;30.28;99199.00;6155785;23;20243;-66
2023/07/26 10:13:24;;;;;;;;;;;;;;;27.52;29.86;99198.16;6155920;23;19920;-66
2023/07/26 10:15:50;;;;;;;;;;;;;;;27.77;30.49;99196.31;6155383;23;19916;-66
2023/07/26 10:18:16;;;;;;;;;;;;;;;28.08;29.47;99205.28;6154417;23;20307;-66
2023/07/26 10:20:43;;;;;;;;;;;;;;;28.14;29.60;99201.97;6155635;23;19932;-66
2023/07/26 10:23:10;;;;;;;;;;;;;;;27.96;29.37;99206.88;6155434;23;19915;-67
2023/07/26 10:25:36;;;;;;;;;;;;;;;27.99;28.32;99206.19;6155227;23;19932;-67
2023/07/26 10:28:02;;;;;;;;;;;;;;;27.78;28.30;99217.22;6155215;23;19917;-67
2023/07/26 10:30:27;;;;;;;;;;;;;;;27.96;28.75;99215.13;6155297;23;19995;-67
2023/07/26 10:32:53;;;;;;;;;;;;;;;28.07;28.51;99221.03;6155232;23;19909;-67
2023/07/26 10:35:26;;;;;;;;;;;;;;;28.41;29.14;99210.72;6155333;23;19915;-67
2023/07/26 10:37:51;;;;;;;;;;;;;;;28.76;29.48;99211.09;6155660;23;19908;-66
2023/07/26 10:40:35;;;;;;;;;;;;;;;28.87;29.29;99216.19;6155189;23;19967;-66
2023/07/26 10:43:21;;;;;;;;;;;;;;;29.08;28.01;99224.31;6155508;23;20428;-67
2023/07/26 10:45:48;;;;;;;;;;;;;;;29.16;27.78;99237.25;6108799;23;19908;-67
2023/07/26 10:48:25;;;;;;;;;;;;;;;28.95;27.72;99227.09;6154394;23;19908;-67
2023/07/26 10:50:50;;;;;;;;;;;;;;;28.82;28.25;99230.22;6155110;23;20314;-67
2023/07/26 10:53:36;;;;;;;;;;;;;;;28.46;28.38;99231.81;6155109;23;19908;-67
2023/07/26 10:56:06;;;;;;;;;;;;;;;28.15;28.84;99244.97;6154828;23;20322;-67
2023/07/26 10:58:31;;;;;;;;;;;;;;;27.78;29.35;99257.81;6154870;23;19916;-67
2023/07/26 11:01:00;;;;;;;;;;;;;;;27.73;30.71;99258.84;6155088;23;19915;-67
2023/07/26 11:03:25;;;;;;;;;;;;;;;27.77;30.83;99262.53;6154772;23;19987;-66
2023/07/26 11:05:57;;;;;;;;;;;;;;;27.85;30.94;99271.88;6154743;23;19944;-66
2023/07/26 11:08:40;;;;;;;;;;;;;;;27.89;31.37;99264.56;6155560;23;20014;-67
2023/07/26 11:11:06;;;;;;;;;;;;;;;27.54;30.17;99273.09;6155329;23;19933;-66
2023/07/26 11:13:32;;;;;;;;;;;;;;;27.51;32.08;99273.00;6129081;23;19917;-66
2023/07/26 11:16:00;;;;;;;;;;;;;;;27.53;32.22;99276.22;6154953;23;19909;-66
2023/07/26 11:18:25;;;;;;;;;;;;;;;27.71;31.86;99269.41;6155447;23;19912;-66
2023/07/26 11:20:51;;;;;;;;;;;;;;;27.90;31.91;99271.69;6154988;23;19916;-66
2023/07/26 11:23:18;;;;;;;;;;;;;;;28.17;32.58;99273.03;6154874;23;19936;-67
2023/07/26 11:25:47;;;;;;;;;;;;;;;28.39;32.22;99273.78;6155384;23;19987;-67
2023/07/26 11:28:12;;;;;;;;;;;;;;;28.55;32.29;99266.47;6155014;23;19916;-67
2023/07/26 11:30:39;;;;;;;;;;;;;;;28.88;32.78;99268.34;6155225;23;19908;-67
2023/07/26 11:33:04;;;;;;;;;;;;;;;29.11;32.84;99265.88;6155306;23;19931;-67
2023/07/26 11:35:37;;;;;;;;;;;;;;;29.40;31.65;99271.50;6128911;23;20410;-67
2023/07/26 11:38:03;;;;;;;;;;;;;;;29.48;31.32;99263.09;6155652;23;19940;-67
2023/07/26 11:40:28;;;;;;;;;;;;;;;29.42;30.85;99270.03;6130986;23;19908;-67
2023/07/26 11:42:53;;;;;;;;;;;;;;;29.52;32.30;99263.97;6157107;23;19913;-67
2023/07/26 11:45:19;;;;;;;;;;;;;;;29.69;31.17;99271.19;6156992;23;20315;-67
2023/07/26 11:47:45;;;;;;;;;;;;;;;29.88;31.34;99276.13;6156236;23;19908;-66
2023/07/26 11:50:11;;;;;;;;;;;;;;;30.07;30.90;99263.56;6156978;23;20211;-67
2023/07/26 11:52:38;;;;;;;;;;;;;;;30.04;30.62;99272.59;6131397;23;19915;-67
2023/07/26 11:55:04;;;;;;;;;;;;;;;30.18;31.25;99272.16;6157021;23;19908;-67
2023/07/26 11:57:30;;;;;;;;;;;;;;;30.29;31.16;99271.28;6156982;23;19943;-67
2023/07/26 12:00:00;;;;;;;;;;;;;;;30.60;31.34;99282.78;6157145;23;19912;-67
2023/07/26 12:02:26;;;;;;;;;;;;;;;30.70;30.05;99287.75;6156898;23;20362;-67
2023/07/26 12:05:10;;;;;;;;;;;;;;;30.68;29.46;99290.91;6156796;23;19916;-67
2023/07/26 12:07:35;;;;;;;;;;;;;;;30.64;30.12;99278.91;6156999;23;19932;-67
2023/07/26 12:10:01;;;;;;;;;;;;;;;30.67;28.94;99277.41;6156715;23;20310;-67
2023/07/26 12:12:26;;;;;;;;;;;;;;;30.46;29.42;99284.03;6156834;23;19908;-67
2023/07/26 12:14:51;;;;;;;;;;;;;;;30.17;28.60;99285.19;6156828;23;19940;-67
2023/07/26 12:17:16;;;;;;;;;;;;;;;29.88;28.73;99289.13;6156679;23;19909;-67
2023/07/26 12:19:45;;;;;;;;;;;;;;;29.75;29.60;99287.59;6156615;23;19913;-67
2023/07/26 12:22:10;;;;;;;;;;;;;;;29.47;30.04;99291.88;6156603;23;20327;-66
2023/07/26 12:24:51;;;;;;;;;;;;;;;29.19;30.00;99296.56;6156723;23;19995;-67
2023/07/26 12:27:16;;;;;;;;;;;;;;;29.42;29.76;99302.38;6156583;23;19970;-67
2023/07/26 12:29:43;;;;;;;;;;;;;;;29.99;30.64;99295.78;6156589;23;19908;-67
2023/07/26 12:32:13;;;;;;;;;;;;;;;30.30;29.95;99291.47;6156364;23;19919;-67
2023/07/26 12:34:42;;;;;;;;;;;;;;;30.71;28.27;99300.47;6156917;23;20318;-67
2023/07/26 12:37:07;;;;;;;;;;;;;;;30.38;27.52;99300.81;6156763;23;20360;-67
2023/07/26 12:39:33;;;;;;;;;;;;;;;30.19;27.33;99307.00;6156806;23;19955;-67
2023/07/26 12:41:59;;;;;;;;;;;;;;;29.83;27.39;99300.44;6156508;23;19916;-67